Time;durP1;ratioP1;P1;durP2;ratioP2;P2;SDS_P1;SDS_P2;PMS_P1;PMS_P2;Temp;Humidity;BMP_temperature;BMP_pressure;BME280_temperature;BME280_humidity;BME280_pressure;Samples;Min_cycle;Max_cycle;Signal;HPM_P1;HPM_P2
2022/06/16 00:00:18;;;;;;;8.70;4.35;;;25.60;99.90;;;;;;4949037;28;20115;-83
2022/06/16 00:02:49;;;;;;;8.35;4.20;;;25.60;99.90;;;;;;4951719;29;20030;-84
2022/06/16 00:05:21;;;;;;;7.35;4.82;;;25.60;99.90;;;;;;4936480;28;20118;-84
2022/06/16 00:07:47;;;;;;;9.02;4.13;;;25.60;99.90;;;;;;4950001;29;20023;-84
2022/06/16 00:10:15;;;;;;;7.90;4.38;;;25.50;99.90;;;;;;4951913;29;20038;-83
2022/06/16 00:12:40;;;;;;;8.30;4.22;;;25.50;99.90;;;;;;4951533;29;20024;-84
2022/06/16 00:15:09;;;;;;;8.32;4.13;;;25.50;99.90;;;;;;4949966;28;20181;-84
2022/06/16 00:17:35;;;;;;;10.25;4.28;;;25.60;99.90;;;;;;4951411;29;20563;-83
2022/06/16 00:20:01;;;;;;;9.98;4.05;;;25.60;99.90;;;;;;4951572;29;20168;-84
2022/06/16 00:22:27;;;;;;;7.35;4.15;;;25.50;99.90;;;;;;4953417;29;20019;-84
2022/06/16 00:24:54;;;;;;;8.18;4.05;;;25.40;99.90;;;;;;4950984;29;20452;-84
2022/06/16 00:27:19;;;;;;;8.55;3.72;;;25.40;99.90;;;;;;4951218;29;20412;-84
2022/06/16 00:29:45;;;;;;;6.15;3.85;;;25.40;99.90;;;;;;4905825;28;1305742;-83
2022/06/16 00:32:11;;;;;;;5.93;3.90;;;25.40;99.90;;;;;;4952065;29;20048;-83
2022/06/16 00:34:37;;;;;;;6.20;4.03;;;25.40;99.90;;;;;;4955693;28;20027;-83
2022/06/16 00:37:03;;;;;;;7.47;4.10;;;25.30;99.90;;;;;;4955943;29;20043;-83
2022/06/16 00:39:29;;;;;;;8.05;4.20;;;25.30;99.90;;;;;;4955518;28;20015;-83
2022/06/16 00:41:55;;;;;;;8.10;4.03;;;25.30;99.90;;;;;;4955772;29;20105;-84
2022/06/16 00:44:20;;;;;;;8.00;3.95;;;25.30;99.90;;;;;;4936999;29;20059;-84
2022/06/16 00:46:46;;;;;;;6.90;3.88;;;25.30;99.90;;;;;;4957238;29;20031;-83
2022/06/16 00:49:13;;;;;;;11.73;4.07;;;25.20;99.90;;;;;;4956445;29;20019;-84
2022/06/16 00:51:50;;;;;;;11.13;4.13;;;25.20;99.90;;;;;;4955680;29;20035;-83
2022/06/16 00:54:23;;;;;;;7.00;3.60;;;25.20;99.90;;;;;;4954879;28;20023;-83
2022/06/16 00:56:51;;;;;;;7.30;4.20;;;25.30;99.90;;;;;;4955685;29;20031;-84
2022/06/16 00:59:19;;;;;;;9.85;4.13;;;25.30;99.90;;;;;;4952948;29;20031;-84
2022/06/16 01:01:44;;;;;;;5.93;3.90;;;25.30;99.90;;;;;;4957692;29;20059;-83
2022/06/16 01:06:58;;;;;;;7.95;3.88;;;25.20;99.90;;;;;;4955406;29;20038;-83
2022/06/16 01:09:29;;;;;;;4.90;3.80;;;25.20;99.90;;;;;;4955019;28;20034;-84
2022/06/16 01:15:21;;;;;;;5.47;3.97;;;25.40;99.90;;;;;;4954782;28;20038;-83
2022/06/16 01:18:04;;;;;;;8.77;3.60;;;25.30;99.90;;;;;;4944387;28;20133;-84
2022/06/16 01:20:53;;;;;;;7.90;3.95;;;25.20;99.90;;;;;;4942335;29;20562;-83
2022/06/16 01:23:45;;;;;;;8.60;4.00;;;25.20;99.90;;;;;;4940436;29;20450;-83
2022/06/16 01:26:34;;;;;;;6.53;3.55;;;25.20;99.90;;;;;;4929315;29;20054;-84
2022/06/16 01:29:21;;;;;;;5.90;3.95;;;25.10;99.90;;;;;;4953103;28;20031;-84
2022/06/16 01:31:56;;;;;;;6.70;3.60;;;25.10;99.90;;;;;;4953451;28;20047;-84
2022/06/16 01:34:52;;;;;;;6.60;4.00;;;25.00;99.90;;;;;;4956584;29;20031;-84
2022/06/16 01:37:48;;;;;;;8.23;3.63;;;24.80;99.90;;;;;;4955435;29;20039;-83
2022/06/16 01:40:34;;;;;;;7.47;3.92;;;24.80;99.90;;;;;;4954376;29;20395;-83
2022/06/16 01:43:06;;;;;;;6.10;3.75;;;24.90;99.90;;;;;;4954864;29;20016;-83
2022/06/16 01:45:53;;;;;;;5.72;4.10;;;24.90;99.90;;;;;;4953161;28;20122;-83
2022/06/16 01:48:20;;;;;;;6.28;3.70;;;24.70;99.90;;;;;;4954576;29;20023;-84
2022/06/16 01:51:03;;;;;;;6.82;3.70;;;24.70;99.90;;;;;;4954349;29;20029;-83
2022/06/16 01:53:47;;;;;;;7.65;3.60;;;24.70;99.90;;;;;;4941700;28;20027;-84
2022/06/16 01:56:13;;;;;;;7.88;3.90;;;24.80;99.90;;;;;;4939485;29;20066;-83
2022/06/16 01:58:42;;;;;;;6.13;3.90;;;24.70;99.90;;;;;;4955069;29;20063;-83
2022/06/16 02:01:14;;;;;;;7.75;3.67;;;24.70;99.90;;;;;;4954691;29;20036;-84
2022/06/16 02:03:48;;;;;;;7.88;3.70;;;24.80;99.90;;;;;;4954378;28;20480;-83
2022/06/16 02:06:23;;;;;;;7.25;3.72;;;24.50;99.90;;;;;;4954112;29;20027;-84
2022/06/16 02:08:54;;;;;;;6.50;3.58;;;24.60;99.90;;;;;;4954299;29;20045;-84
2022/06/16 02:11:26;;;;;;;5.10;3.78;;;24.60;99.90;;;;;;4954439;29;20093;-83
2022/06/16 02:14:35;;;;;;;6.13;3.60;;;24.40;99.90;;;;;;4954521;29;20031;-84
2022/06/16 02:17:02;;;;;;;5.28;3.35;;;24.40;99.90;;;;;;4876403;29;20041;-83
2022/06/16 02:19:29;;;;;;;7.95;3.80;;;24.40;99.90;;;;;;4878336;29;20120;-83
2022/06/16 02:21:55;;;;;;;7.28;4.18;;;24.30;99.90;;;;;;4876085;29;20025;-84
2022/06/16 02:24:25;;;;;;;7.75;3.83;;;24.20;99.90;;;;;;4876362;29;20041;-84
2022/06/16 02:26:54;;;;;;;6.10;3.90;;;23.90;99.90;;;;;;4876319;29;20443;-83
2022/06/16 02:29:30;;;;;;;8.77;4.15;;;23.80;99.90;;;;;;4876285;29;20025;-83
2022/06/16 02:32:04;;;;;;;7.18;4.18;;;23.70;99.90;;;;;;4876652;29;20108;-83
2022/06/16 02:34:48;;;;;;;4.93;3.80;;;23.80;99.90;;;;;;4877785;29;20112;-83
2022/06/16 02:37:39;;;;;;;8.57;4.10;;;23.80;99.90;;;;;;4875627;29;20060;-83
2022/06/16 02:40:28;;;;;;;5.70;3.90;;;23.80;99.90;;;;;;4823202;29;20060;-83
2022/06/16 02:43:12;;;;;;;7.32;4.47;;;23.80;99.90;;;;;;4822583;29;20068;-83
2022/06/16 02:46:06;;;;;;;6.60;4.32;;;23.70;99.90;;;;;;4823229;29;20034;-84
2022/06/16 02:48:50;;;;;;;6.45;4.53;;;23.70;99.90;;;;;;4786867;29;20035;-84
2022/06/16 02:51:40;;;;;;;8.60;4.80;;;23.60;99.90;;;;;;4819225;29;20097;-84
2022/06/16 02:54:33;;;;;;;6.88;4.22;;;23.60;99.90;;;;;;4840030;29;20049;-84
2022/06/16 02:57:31;;;;;;;10.63;4.93;;;23.40;99.90;;;;;;4828785;29;20223;-84
2022/06/16 03:00:12;;;;;;;6.88;4.80;;;23.40;99.90;;;;;;4830972;29;20426;-83
2022/06/16 03:02:40;;;;;;;11.85;5.25;;;23.30;99.90;;;;;;4840112;29;20448;-83
2022/06/16 03:05:07;;;;;;;6.88;5.25;;;23.20;99.90;;;;;;4839578;29;20411;-83
2022/06/16 03:07:34;;;;;;;9.40;5.32;;;23.20;99.90;;;;;;4840750;29;20067;-83
2022/06/16 03:10:05;;;;;;;8.40;5.35;;;23.20;99.90;;;;;;4839797;29;20046;-84
2022/06/16 03:12:30;;;;;;;8.93;4.75;;;23.30;99.90;;;;;;4839083;29;20495;-84
2022/06/16 03:14:56;;;;;;;7.90;4.85;;;23.30;99.90;;;;;;4839597;29;20034;-84
2022/06/16 03:17:21;;;;;;;8.20;4.68;;;23.20;99.90;;;;;;4874617;29;20068;-84
2022/06/16 03:19:47;;;;;;;10.38;5.05;;;23.20;99.90;;;;;;4895473;29;20044;-84
2022/06/16 03:22:13;;;;;;;10.02;5.60;;;23.20;99.90;;;;;;4876062;29;20032;-84
2022/06/16 03:24:39;;;;;;;6.70;5.32;;;23.10;99.90;;;;;;4901210;29;20042;-84
2022/06/16 03:27:07;;;;;;;7.38;4.90;;;22.90;99.90;;;;;;4943503;29;20067;-82
2022/06/16 03:29:32;;;;;;;5.88;4.75;;;22.80;99.90;;;;;;4952060;28;20113;-83
2022/06/16 03:31:58;;;;;;;7.25;4.78;;;22.90;99.90;;;;;;4953260;29;20484;-83
2022/06/16 03:34:25;;;;;;;7.18;4.75;;;22.90;99.90;;;;;;4952503;28;20019;-83
2022/06/16 03:36:51;;;;;;;8.45;5.40;;;22.90;99.90;;;;;;4952620;29;20404;-83
2022/06/16 03:39:17;;;;;;;8.77;4.57;;;22.90;99.90;;;;;;4952470;28;20035;-83
2022/06/16 03:41:43;;;;;;;5.70;4.25;;;22.90;99.90;;;;;;4952113;28;20027;-83
2022/06/16 03:44:09;;;;;;;6.53;4.38;;;22.80;99.90;;;;;;4952405;29;20038;-83
2022/06/16 03:46:35;;;;;;;8.57;4.50;;;22.70;99.90;;;;;;4954642;28;20114;-84
2022/06/16 03:49:01;;;;;;;8.38;4.70;;;22.80;99.90;;;;;;4952239;29;20027;-83
2022/06/16 03:51:26;;;;;;;6.38;4.03;;;22.70;99.90;;;;;;4952353;29;20027;-84
2022/06/16 03:53:52;;;;;;;7.80;4.60;;;22.70;99.90;;;;;;4952638;29;20030;-83
2022/06/16 03:56:18;;;;;;;8.13;4.50;;;22.60;99.90;;;;;;4952338;29;20042;-83
2022/06/16 03:58:43;;;;;;;5.10;4.10;;;22.60;99.90;;;;;;4952911;28;20114;-83
2022/06/16 04:01:09;;;;;;;9.98;4.78;;;22.60;99.90;;;;;;4950927;29;20023;-84
2022/06/16 04:06:20;;;;;;;8.13;4.78;;;22.70;99.90;;;;;;4952669;28;20046;-83
2022/06/16 04:08:46;;;;;;;7.65;4.43;;;22.70;99.90;;;;;;4952272;28;20482;-83
2022/06/16 04:11:27;;;;;;;9.02;4.13;;;22.60;99.90;;;;;;4936840;29;20095;-83
2022/06/16 04:14:00;;;;;;;6.43;4.43;;;22.70;99.90;;;;;;4950828;28;20023;-84
2022/06/16 04:16:31;;;;;;;7.18;4.50;;;22.70;99.90;;;;;;4951886;28;20044;-83
2022/06/16 04:18:56;;;;;;;9.15;4.20;;;22.80;99.90;;;;;;4951442;29;20042;-83
2022/06/16 04:21:23;;;;;;;7.75;4.50;;;22.80;99.90;;;;;;4952123;28;20023;-84
2022/06/16 04:23:49;;;;;;;6.60;4.28;;;22.80;99.90;;;;;;4952187;29;20031;-83
2022/06/16 04:26:14;;;;;;;8.70;4.45;;;22.90;99.90;;;;;;4952360;29;20504;-83
2022/06/16 04:28:40;;;;;;;5.28;4.53;;;22.90;99.90;;;;;;4950317;28;20126;-83
2022/06/16 04:31:06;;;;;;;8.77;4.40;;;22.80;99.90;;;;;;4951663;29;20385;-83
2022/06/16 04:33:31;;;;;;;8.52;4.97;;;22.80;99.90;;;;;;4952057;29;20063;-83
2022/06/16 04:35:57;;;;;;;6.38;4.43;;;22.80;99.90;;;;;;4952002;28;20023;-83
2022/06/16 04:38:22;;;;;;;8.43;5.38;;;22.70;99.90;;;;;;4952193;29;20043;-83
2022/06/16 04:40:48;;;;;;;8.20;4.75;;;22.80;99.90;;;;;;4953289;29;20390;-83
2022/06/16 04:43:15;;;;;;;5.53;4.93;;;22.90;99.90;;;;;;4951975;28;20035;-83
2022/06/16 04:45:44;;;;;;;8.00;5.07;;;22.80;99.90;;;;;;4951483;29;20023;-83
2022/06/16 04:48:11;;;;;;;10.05;4.85;;;22.90;99.90;;;;;;4951771;29;20035;-84
2022/06/16 04:50:37;;;;;;;7.72;4.50;;;22.90;99.90;;;;;;4952144;28;20024;-84
2022/06/16 04:53:03;;;;;;;6.85;4.85;;;23.00;99.90;;;;;;4951901;29;20106;-83
2022/06/16 04:55:30;;;;;;;8.52;4.50;;;23.10;99.90;;;;;;4953850;29;20172;-82
2022/06/16 04:57:56;;;;;;;7.22;4.45;;;23.00;99.90;;;;;;4949910;28;20411;-84
2022/06/16 05:00:21;;;;;;;9.48;4.88;;;23.00;99.90;;;;;;4951524;29;20020;-83
2022/06/16 05:02:47;;;;;;;9.13;4.88;;;23.10;99.90;;;;;;4951513;29;20411;-84
2022/06/16 05:05:13;;;;;;;7.93;4.70;;;23.10;99.90;;;;;;4951764;29;20031;-82
2022/06/16 05:07:40;;;;;;;9.48;4.70;;;23.10;99.90;;;;;;4952889;29;20059;-82
2022/06/16 05:10:07;;;;;;;11.30;4.72;;;23.10;99.90;;;;;;4951552;28;20043;-83
2022/06/16 05:12:33;;;;;;;9.15;4.72;;;23.00;99.90;;;;;;4950791;28;20028;-83
2022/06/16 05:14:58;;;;;;;12.05;5.47;;;23.10;99.90;;;;;;4950789;28;20476;-82
2022/06/16 05:17:24;;;;;;;8.40;5.40;;;23.20;99.90;;;;;;4951479;29;20032;-83
2022/06/16 05:19:49;;;;;;;8.57;4.85;;;23.20;99.90;;;;;;4952673;28;20392;-82
2022/06/16 05:22:15;;;;;;;8.73;5.15;;;23.20;99.90;;;;;;4955413;29;20027;-82
2022/06/16 05:24:41;;;;;;;9.73;5.35;;;23.30;99.90;;;;;;4954441;29;20027;-81
2022/06/16 05:27:07;;;;;;;9.20;5.57;;;23.20;99.90;;;;;;4951650;28;20388;-82
2022/06/16 05:29:33;;;;;;;11.20;5.40;;;23.20;99.90;;;;;;4954263;28;20043;-82
2022/06/16 05:31:59;;;;;;;9.18;5.07;;;23.20;99.90;;;;;;4954846;29;20423;-83
2022/06/16 05:34:25;;;;;;;9.00;5.00;;;23.20;99.90;;;;;;4954572;29;20503;-82
2022/06/16 05:36:51;;;;;;;13.43;5.78;;;23.30;99.90;;;;;;4954670;29;20031;-83
2022/06/16 05:39:16;;;;;;;6.32;5.15;;;23.30;99.90;;;;;;4954706;29;20053;-82
2022/06/16 05:41:42;;;;;;;9.52;5.32;;;23.30;99.90;;;;;;4953191;28;20073;-83
2022/06/16 05:44:11;;;;;;;10.27;4.82;;;23.50;99.90;;;;;;4953683;28;20035;-83
2022/06/16 05:46:37;;;;;;;7.95;5.20;;;23.50;99.90;;;;;;4956543;29;20024;-83
2022/06/16 05:49:04;;;;;;;8.23;5.03;;;23.50;99.90;;;;;;4954626;29;20121;-83
2022/06/16 05:51:30;;;;;;;5.60;5.00;;;23.60;99.90;;;;;;4954644;29;20046;-82
2022/06/16 05:53:55;;;;;;;6.45;4.95;;;23.60;99.90;;;;;;4954388;28;20027;-83
2022/06/16 05:56:21;;;;;;;10.23;5.07;;;23.70;99.90;;;;;;4953066;29;20408;-83
2022/06/16 05:58:47;;;;;;;9.75;5.25;;;23.70;99.90;;;;;;4955506;29;20058;-83
2022/06/16 06:01:16;;;;;;;7.57;4.93;;;23.80;99.90;;;;;;4953854;29;20031;-83
2022/06/16 06:03:43;;;;;;;12.93;6.00;;;23.90;99.90;;;;;;4954499;28;20045;-83
2022/06/16 06:06:09;;;;;;;12.98;6.30;;;24.00;99.90;;;;;;4954330;29;20031;-83
2022/06/16 06:17:07;;;;;;;11.05;5.85;;;24.40;99.90;;;;;;4953440;28;20046;-83
2022/06/16 06:19:33;;;;;;;14.00;5.80;;;24.50;99.90;;;;;;4956195;29;20492;-84
2022/06/16 06:22:06;;;;;;;9.65;5.00;;;24.60;99.90;;;;;;4953931;28;20034;-83
2022/06/16 06:24:36;;;;;;;8.85;5.13;;;24.60;99.90;;;;;;4952280;28;20027;-83
2022/06/16 06:27:15;;;;;;;8.40;4.60;;;24.70;99.90;;;;;;4953507;28;20026;-83
2022/06/16 06:29:45;;;;;;;8.55;5.03;;;24.80;99.90;;;;;;4953613;29;20055;-83
2022/06/16 06:32:12;;;;;;;9.07;5.20;;;24.90;99.90;;;;;;4952676;28;20027;-83
2022/06/16 06:34:38;;;;;;;8.18;4.75;;;25.00;99.90;;;;;;4955869;28;20031;-83
2022/06/16 06:37:05;;;;;;;6.57;4.43;;;25.10;99.90;;;;;;4953781;28;20526;-83
2022/06/16 06:39:31;;;;;;;7.57;4.70;;;25.20;99.90;;;;;;4951747;28;20400;-83
2022/06/16 06:41:57;;;;;;;10.15;5.22;;;25.30;99.90;;;;;;4953437;29;20034;-84
2022/06/16 06:44:23;;;;;;;8.57;4.88;;;25.40;99.90;;;;;;4954079;29;20024;-84
2022/06/16 06:46:48;;;;;;;5.50;4.30;;;25.50;99.90;;;;;;4955132;29;20480;-83
2022/06/16 06:49:14;;;;;;;14.32;4.78;;;25.60;99.90;;;;;;4954395;29;20038;-83
2022/06/16 06:51:40;;;;;;;9.80;4.70;;;25.70;99.90;;;;;;4953434;29;20019;-83
2022/06/16 06:54:05;;;;;;;7.00;4.80;;;25.70;99.90;;;;;;4951497;28;20041;-83
2022/06/16 06:56:32;;;;;;;10.07;4.63;;;25.80;99.90;;;;;;4953105;28;20555;-84
2022/06/16 06:59:01;;;;;;;9.98;4.55;;;25.90;99.90;;;;;;4953782;29;20055;-84
2022/06/16 07:01:26;;;;;;;8.27;4.63;;;26.00;99.90;;;;;;4951483;28;20365;-83
2022/06/16 07:03:52;;;;;;;8.20;4.57;;;26.10;99.90;;;;;;4953119;29;20082;-84
2022/06/16 07:06:19;;;;;;;10.65;4.57;;;26.20;99.90;;;;;;4953270;29;20040;-84
2022/06/16 07:08:45;;;;;;;9.75;4.90;;;26.30;99.90;;;;;;4953392;28;20030;-84
2022/06/16 07:11:11;;;;;;;12.00;5.13;;;26.40;99.90;;;;;;4952875;29;20023;-83
2022/06/16 07:13:36;;;;;;;9.75;4.57;;;26.40;99.90;;;;;;4955330;29;20042;-83
2022/06/16 07:16:03;;;;;;;9.65;4.68;;;26.50;99.90;;;;;;4950015;28;20023;-83
2022/06/16 07:18:28;;;;;;;5.93;4.60;;;26.60;99.90;;;;;;4952999;29;20039;-83
2022/06/16 07:20:54;;;;;;;13.02;4.82;;;26.70;99.90;;;;;;4953080;28;20547;-83
2022/06/16 07:23:20;;;;;;;10.15;4.80;;;26.80;99.90;;;;;;4952966;29;20039;-83
2022/06/16 07:25:48;;;;;;;7.45;4.70;;;26.90;99.90;;;;;;4954626;29;20039;-83
2022/06/16 07:28:13;;;;;;;9.10;5.13;;;27.00;99.90;;;;;;4952159;28;20456;-83
2022/06/16 07:30:39;;;;;;;10.55;5.35;;;27.10;99.90;;;;;;4951051;28;20122;-83
2022/06/16 07:33:04;;;;;;;8.98;5.55;;;27.10;99.90;;;;;;4952600;28;20031;-83
2022/06/16 07:35:30;;;;;;;8.00;4.70;;;27.30;99.90;;;;;;4952815;28;20412;-83
2022/06/16 07:37:56;;;;;;;9.73;4.75;;;27.40;99.90;;;;;;4953406;29;20130;-83
2022/06/16 07:40:22;;;;;;;9.95;4.50;;;27.50;99.90;;;;;;4953950;29;20027;-83
2022/06/16 07:42:49;;;;;;;10.18;5.00;;;27.70;99.90;;;;;;4952203;28;20035;-83
2022/06/16 07:45:15;;;;;;;8.65;4.97;;;27.70;99.90;;;;;;4949974;29;20032;-83
2022/06/16 07:47:41;;;;;;;14.75;5.00;;;27.70;99.90;;;;;;4951775;28;20061;-83
2022/06/16 07:50:08;;;;;;;7.70;5.28;;;27.80;99.90;;;;;;4935447;29;20034;-83
2022/06/16 07:52:37;;;;;;;10.82;4.95;;;27.90;99.90;;;;;;4954641;28;20027;-84
2022/06/16 07:55:03;;;;;;;8.63;4.95;;;28.00;99.90;;;;;;4952136;28;20030;-83
2022/06/16 07:57:31;;;;;;;8.32;4.88;;;28.10;99.90;;;;;;4952240;29;20042;-83
2022/06/16 07:59:58;;;;;;;8.68;5.50;;;28.20;99.90;;;;;;4951860;29;20023;-84
2022/06/16 08:02:24;;;;;;;9.73;5.30;;;28.20;99.90;;;;;;4952347;29;20043;-83
2022/06/16 08:04:49;;;;;;;8.68;5.10;;;28.30;99.90;;;;;;4953648;28;20062;-83
2022/06/16 08:07:15;;;;;;;13.98;5.80;;;28.30;99.90;;;;;;4953159;29;20487;-83
2022/06/16 08:09:41;;;;;;;10.30;5.53;;;28.40;99.90;;;;;;4952044;29;20059;-83
2022/06/16 08:12:08;;;;;;;15.15;5.80;;;28.40;99.90;;;;;;4952289;29;20038;-83
2022/06/16 08:14:38;;;;;;;12.70;5.80;;;28.50;99.90;;;;;;4950647;28;20110;-83
2022/06/16 08:17:25;;;;;;;14.20;5.75;;;28.70;99.90;;;;;;4952181;29;20118;-83
2022/06/16 08:19:51;;;;;;;10.05;6.07;;;28.60;99.90;;;;;;4950870;28;20028;-84
2022/06/16 08:22:18;;;;;;;11.40;5.95;;;28.70;99.90;;;;;;4952823;29;20122;-83
2022/06/16 08:24:43;;;;;;;9.32;5.47;;;28.80;99.90;;;;;;4951987;29;20051;-83
2022/06/16 08:27:10;;;;;;;11.30;6.20;;;28.90;99.90;;;;;;4952107;28;20058;-84
2022/06/16 08:29:37;;;;;;;8.45;5.28;;;28.90;99.90;;;;;;4950933;29;20472;-84
2022/06/16 08:32:03;;;;;;;9.68;5.40;;;29.10;99.90;;;;;;4952198;29;20034;-83
2022/06/16 08:34:29;;;;;;;9.98;5.68;;;29.20;99.90;;;;;;4954036;28;20030;-83
2022/06/16 08:36:55;;;;;;;13.60;5.82;;;29.30;99.90;;;;;;4951680;29;20047;-83
2022/06/16 08:39:20;;;;;;;17.00;6.18;;;29.30;99.90;;;;;;4952005;29;20062;-83
2022/06/16 08:41:46;;;;;;;10.43;6.13;;;29.50;99.90;;;;;;4952156;29;20027;-83
2022/06/16 08:44:22;;;;;;;10.45;6.20;;;29.40;99.90;;;;;;4951081;28;20034;-83
2022/06/16 08:47:08;;;;;;;15.43;6.13;;;29.30;99.90;;;;;;4950121;28;20109;-83
2022/06/16 08:49:51;;;;;;;7.93;5.55;;;29.30;99.90;;;;;;4952996;29;20086;-83
2022/06/16 08:52:29;;;;;;;11.52;5.38;;;29.60;99.90;;;;;;4951087;29;20035;-83
2022/06/16 08:55:07;;;;;;;9.27;5.10;;;29.60;99.90;;;;;;4952440;28;20093;-84
2022/06/16 08:57:45;;;;;;;10.43;5.15;;;29.60;99.90;;;;;;4953713;28;20035;-83
2022/06/16 09:00:21;;;;;;;12.57;5.70;;;29.80;99.90;;;;;;4947934;28;20028;-84
2022/06/16 09:02:49;;;;;;;10.32;5.22;;;29.80;99.90;;;;;;4955597;28;20049;-83
2022/06/16 09:05:41;;;;;;;8.60;5.40;;;29.80;99.90;;;;;;4940709;29;20464;-83
2022/06/16 09:08:24;;;;;;;7.90;5.28;;;30.00;99.90;;;;;;4954734;28;20042;-83
2022/06/16 09:11:10;;;;;;;15.85;5.60;;;30.00;99.90;;;;;;4953950;28;20492;-83
2022/06/16 09:14:00;;;;;;;8.98;5.05;;;30.00;99.90;;;;;;4954761;28;20437;-84
2022/06/16 09:16:58;;;;;;;12.15;5.32;;;30.00;99.90;;;;;;4955149;28;20387;-84
2022/06/16 09:19:50;;;;;;;10.13;5.32;;;30.00;99.90;;;;;;4956917;29;20421;-83
2022/06/16 09:22:29;;;;;;;10.55;5.55;;;30.30;99.90;;;;;;4954377;29;20038;-84
2022/06/16 09:25:22;;;;;;;10.57;5.55;;;30.50;99.90;;;;;;4955379;28;20097;-84
2022/06/16 09:28:01;;;;;;;9.80;5.25;;;30.40;99.90;;;;;;4953096;28;20539;-83
2022/06/16 09:30:32;;;;;;;8.10;5.18;;;30.50;99.90;;;;;;4955123;29;20412;-84
2022/06/16 09:33:04;;;;;;;9.07;4.93;;;30.50;99.90;;;;;;4955082;29;20034;-84
2022/06/16 09:35:40;;;;;;;6.82;5.05;;;30.60;99.90;;;;;;4954673;29;20034;-84
2022/06/16 09:38:10;;;;;;;12.82;5.93;;;30.90;99.90;;;;;;4954927;29;20461;-83
2022/06/16 09:40:48;;;;;;;9.80;5.20;;;31.00;99.90;;;;;;4956958;28;20027;-83
2022/06/16 09:43:37;;;;;;;8.90;4.97;;;31.00;99.90;;;;;;4953329;28;20117;-84
2022/06/16 09:46:11;;;;;;;11.77;5.10;;;31.10;99.90;;;;;;4954853;29;20031;-83
2022/06/16 09:48:54;;;;;;;8.82;4.85;;;31.10;99.90;;;;;;4954743;29;20027;-84
2022/06/16 09:51:29;;;;;;;10.27;4.68;;;31.10;99.90;;;;;;4954255;29;20079;-83
2022/06/16 09:54:20;;;;;;;8.45;5.45;;;30.90;99.90;;;;;;4954528;29;20062;-84
2022/06/16 09:57:10;;;;;;;8.98;5.30;;;31.10;99.90;;;;;;4953521;28;20050;-84
2022/06/16 09:59:42;;;;;;;12.07;5.25;;;31.20;99.90;;;;;;4953529;28;20063;-83
2022/06/16 10:02:18;;;;;;;9.57;5.25;;;31.30;99.90;;;;;;4954681;29;20035;-84
2022/06/16 10:04:44;;;;;;;11.18;5.20;;;31.30;99.90;;;;;;4952397;28;20396;-83
2022/06/16 10:07:25;;;;;;;8.15;5.53;;;31.50;99.90;;;;;;4954326;28;20058;-83
2022/06/16 10:09:56;;;;;;;11.95;5.55;;;31.60;99.90;;;;;;4954340;28;20027;-83
2022/06/16 10:12:42;;;;;;;9.10;5.40;;;31.60;99.90;;;;;;4954373;28;20031;-83
2022/06/16 10:15:10;;;;;;;10.45;5.40;;;31.90;99.90;;;;;;4951819;28;20045;-84
2022/06/16 10:17:38;;;;;;;12.02;5.13;;;31.80;99.90;;;;;;4954230;29;20105;-84
2022/06/16 10:20:05;;;;;;;9.07;5.38;;;31.80;99.90;;;;;;4953974;29;20458;-83
2022/06/16 10:22:31;;;;;;;9.02;5.30;;;31.80;99.90;;;;;;4955124;28;20446;-84
2022/06/16 10:25:18;;;;;;;7.82;5.00;;;31.90;99.90;;;;;;4954199;29;20507;-84
2022/06/16 10:28:01;;;;;;;9.55;5.18;;;32.00;99.90;;;;;;4954123;29;20082;-83
2022/06/16 10:30:38;;;;;;;10.38;5.30;;;31.90;99.90;;;;;;4953866;29;20081;-84
2022/06/16 10:33:20;;;;;;;7.55;4.85;;;31.90;99.90;;;;;;4953471;28;20038;-84
2022/06/16 10:35:48;;;;;;;6.93;5.13;;;32.10;99.90;;;;;;4952964;29;20102;-84
2022/06/16 10:38:39;;;;;;;10.25;5.25;;;32.20;99.90;;;;;;4954478;29;20122;-84
2022/06/16 10:41:22;;;;;;;12.73;5.20;;;32.20;99.90;;;;;;4951963;29;20125;-84
2022/06/16 10:43:48;;;;;;;10.57;4.50;;;32.10;99.90;;;;;;4951932;28;20042;-83
2022/06/16 10:46:15;;;;;;;10.55;5.30;;;32.30;99.90;;;;;;4937163;29;20027;-84
2022/06/16 10:48:49;;;;;;;7.82;5.13;;;32.20;99.90;;;;;;4953331;29;20477;-84
2022/06/16 10:51:27;;;;;;;8.18;4.80;;;32.20;99.90;;;;;;4953322;29;20578;-84
2022/06/16 10:54:13;;;;;;;9.40;5.30;;;32.30;99.90;;;;;;4953539;29;20028;-84
2022/06/16 10:56:40;;;;;;;7.80;4.78;;;32.40;99.90;;;;;;4953463;28;20487;-83
2022/06/16 10:59:19;;;;;;;8.63;4.70;;;32.50;99.90;;;;;;4953629;29;20535;-84
2022/06/16 11:01:55;;;;;;;8.30;5.00;;;32.40;99.90;;;;;;4951551;28;20023;-84
2022/06/16 11:04:33;;;;;;;9.93;5.00;;;32.40;99.90;;;;;;4937325;29;20388;-84
2022/06/16 11:06:59;;;;;;;10.80;4.90;;;32.50;99.90;;;;;;4952730;29;20447;-84
2022/06/16 11:09:30;;;;;;;9.55;5.68;;;32.60;99.90;;;;;;4952313;29;20029;-84
2022/06/16 11:12:01;;;;;;;15.50;5.32;;;32.40;99.90;;;;;;4953275;29;20175;-84
2022/06/16 11:14:41;;;;;;;9.80;5.00;;;32.70;99.90;;;;;;4953295;29;20099;-84
2022/06/16 11:17:18;;;;;;;8.75;4.90;;;32.70;99.90;;;;;;4952956;28;20448;-83
2022/06/16 11:19:49;;;;;;;7.97;4.53;;;32.90;99.90;;;;;;4949655;28;20031;-83
2022/06/16 11:22:27;;;;;;;7.85;5.15;;;32.60;99.90;;;;;;4952271;29;20028;-83
2022/06/16 11:25:06;;;;;;;6.95;5.20;;;32.70;99.90;;;;;;4952965;29;20031;-83
2022/06/16 11:27:56;;;;;;;10.68;5.80;;;32.80;99.90;;;;;;4952864;28;20035;-84
2022/06/16 11:30:27;;;;;;;8.38;4.97;;;32.90;99.90;;;;;;4952832;29;20058;-83
2022/06/16 11:32:53;;;;;;;7.15;4.85;;;33.10;99.90;;;;;;4952585;29;20031;-84
2022/06/16 11:35:24;;;;;;;6.50;4.82;;;32.90;99.90;;;;;;4951134;28;20372;-84
2022/06/16 11:37:55;;;;;;;9.77;4.97;;;33.10;99.90;;;;;;4954169;29;20042;-84
2022/06/16 11:40:29;;;;;;;8.57;5.00;;;33.30;99.90;;;;;;4954004;29;20110;-84
2022/06/16 11:43:27;;;;;;;11.25;5.00;;;33.40;99.90;;;;;;4952664;29;20027;-84
2022/06/16 11:46:06;;;;;;;6.47;4.80;;;33.60;99.90;;;;;;4935130;29;20031;-84
2022/06/16 11:48:57;;;;;;;9.13;8.00;;;33.70;99.90;;;;;;4952717;29;20114;-84
2022/06/16 11:51:45;;;;;;;7.22;5.13;;;33.60;99.90;;;;;;4946108;29;20023;-84
2022/06/16 11:54:34;;;;;;;7.90;4.90;;;33.50;99.90;;;;;;4952308;29;20027;-84
2022/06/16 11:57:29;;;;;;;8.57;4.88;;;33.70;99.90;;;;;;4952368;29;20050;-83
2022/06/16 12:00:16;;;;;;;6.88;4.70;;;34.10;99.90;;;;;;4952270;29;20082;-84
2022/06/16 12:03:06;;;;;;;8.48;5.00;;;34.40;99.90;;;;;;4952554;28;20027;-84
2022/06/16 12:06:07;;;;;;;8.27;5.05;;;34.00;99.90;;;;;;4947267;28;20108;-84
2022/06/16 12:08:50;;;;;;;7.65;5.07;;;33.40;99.90;;;;;;4926028;29;20039;-84
2022/06/16 12:11:27;;;;;;;8.80;4.57;;;34.70;99.90;;;;;;4937309;29;20034;-84
2022/06/16 12:14:08;;;;;;;11.60;4.78;;;36.80;99.90;;;;;;4950853;29;20516;-84
2022/06/16 12:16:39;;;;;;;10.50;4.60;;;38.80;99.90;;;;;;4950127;28;20019;-84
2022/06/16 12:19:24;;;;;;;5.40;4.05;;;40.00;99.90;;;;;;4952184;29;20045;-84
2022/06/16 12:21:52;;;;;;;6.03;4.30;;;40.40;99.90;;;;;;4952294;28;20488;-84
2022/06/16 12:24:45;;;;;;;10.23;4.70;;;41.80;99.90;;;;;;4952145;29;20035;-84
2022/06/16 12:27:16;;;;;;;5.47;4.97;;;42.40;99.90;;;;;;4952177;29;20019;-84
2022/06/16 12:29:50;;;;;;;7.88;5.05;;;43.00;99.90;;;;;;4953472;28;20043;-84
2022/06/16 12:32:33;;;;;;;5.85;4.47;;;43.00;99.90;;;;;;4950665;29;20023;-85
2022/06/16 12:35:22;;;;;;;11.82;4.63;;;43.50;99.90;;;;;;4956755;28;20080;-84
2022/06/16 12:37:53;;;;;;;7.30;4.25;;;43.20;99.90;;;;;;4954410;29;20043;-85
2022/06/16 12:40:49;;;;;;;5.53;4.30;;;42.90;99.90;;;;;;4956866;28;20492;-85
2022/06/16 12:43:21;;;;;;;8.27;4.70;;;42.90;99.90;;;;;;4955754;29;20031;-85
2022/06/16 12:45:52;;;;;;;6.72;4.63;;;42.60;99.90;;;;;;4955035;29;20023;-85
2022/06/16 12:48:27;;;;;;;6.78;4.10;;;42.90;99.90;;;;;;4955922;28;20110;-85
2022/06/16 12:51:00;;;;;;;7.13;4.38;;;43.00;99.90;;;;;;4955793;28;20041;-85
2022/06/16 12:53:52;;;;;;;4.90;4.35;;;42.80;99.90;;;;;;4955798;29;20085;-85
2022/06/16 12:56:29;;;;;;;7.25;4.32;;;42.20;99.90;;;;;;4940623;29;20396;-85
2022/06/16 12:59:06;;;;;;;5.68;4.07;;;42.20;99.90;;;;;;4956422;29;20039;-85
2022/06/16 13:01:34;;;;;;;8.00;4.70;;;41.30;99.90;;;;;;4955142;28;20387;-85
2022/06/16 13:04:10;;;;;;;7.05;4.53;;;41.20;99.90;;;;;;4955618;28;20038;-85
2022/06/16 13:06:36;;;;;;;5.90;4.43;;;41.40;99.90;;;;;;4955380;29;20412;-85
2022/06/16 13:09:06;;;;;;;7.18;3.90;;;41.10;99.90;;;;;;4955493;29;20034;-84
2022/06/16 13:11:37;;;;;;;5.65;4.20;;;41.50;99.90;;;;;;4955556;29;20034;-85
2022/06/16 13:14:12;;;;;;;5.88;4.75;;;41.70;99.90;;;;;;4955228;29;20118;-85
2022/06/16 13:16:41;;;;;;;8.90;4.63;;;41.60;99.90;;;;;;4956361;29;20030;-85
2022/06/16 13:19:19;;;;;;;10.48;4.22;;;41.20;99.90;;;;;;4955065;29;20486;-85
2022/06/16 13:21:55;;;;;;;7.40;4.65;;;41.50;99.90;;;;;;4955333;28;20082;-85
2022/06/16 13:24:53;;;;;;;7.10;4.20;;;41.10;99.90;;;;;;4954470;28;20027;-85
2022/06/16 13:27:28;;;;;;;6.30;4.30;;;40.50;99.90;;;;;;4954913;28;20031;-84
2022/06/16 13:30:09;;;;;;;8.43;4.60;;;40.60;99.90;;;;;;4954893;29;20054;-85